createdAt,value
2023-01-04T00:01:28.091Z,101460.03
2023-01-04T00:03:55.207Z,101454.47
2023-01-04T00:06:22.406Z,101449.63
2023-01-04T00:08:49.678Z,101446.47
2023-01-04T00:11:22.312Z,101452.94
2023-01-04T00:13:52.814Z,101453.13
2023-01-04T00:16:22.887Z,101456.06
2023-01-04T00:18:51.548Z,101449.31
2023-01-04T00:21:25.588Z,101445.56
2023-01-04T00:23:56.863Z,101439.88
2023-01-04T00:26:33.179Z,101443.03
2023-01-04T00:29:06.876Z,101450.28
2023-01-04T00:31:34.912Z,101457.81
2023-01-04T00:34:04.696Z,101457.59
2023-01-04T00:36:32.976Z,101462.13
2023-01-04T00:39:09.113Z,101458.72
2023-01-04T00:42:02.280Z,101460.31
2023-01-04T00:44:30.992Z,101464.84
2023-01-04T00:47:03.424Z,101462.88
2023-01-04T00:49:31.704Z,101466.88
2023-01-04T00:51:58.900Z,101469.31
2023-01-04T00:54:26.313Z,101480.84
2023-01-04T00:56:53.952Z,101485.28
2023-01-04T00:59:23.110Z,101482.00
2023-01-04T01:01:51.224Z,101501.16
2023-01-04T01:04:21.799Z,101492.06
2023-01-04T01:06:49.203Z,101491.41
2023-01-04T01:09:17.275Z,101485.72
2023-01-04T01:11:44.371Z,101484.25
2023-01-04T01:14:18.994Z,101489.00
2023-01-04T01:16:56.401Z,101494.53
2023-01-04T01:19:26.433Z,101483.81
2023-01-04T01:21:53.563Z,101496.81
2023-01-04T01:24:21.013Z,101496.44
2023-01-04T01:26:48.084Z,101503.88
2023-01-04T01:29:15.311Z,101503.63
2023-01-04T01:31:42.719Z,101506.94
2023-01-04T01:34:10.092Z,101504.66
2023-01-04T01:36:37.856Z,101499.31
2023-01-04T01:39:06.716Z,101494.22
2023-01-04T01:41:35.724Z,101489.88
2023-01-04T01:44:43.149Z,101483.59
2023-01-04T01:47:22.274Z,101466.09
2023-01-04T01:49:53.733Z,101477.22
2023-01-04T01:52:34.272Z,101479.31
2023-01-04T01:55:07.511Z,101473.75
2023-01-04T01:57:37.906Z,101464.63
2023-01-04T02:00:15.056Z,101470.88
2023-01-04T02:03:05.077Z,101475.22
2023-01-04T02:05:34.114Z,101474.66
2023-01-04T02:08:04.039Z,101478.06
2023-01-04T02:10:32.638Z,101469.16
2023-01-04T02:13:06.625Z,101466.47
2023-01-04T02:16:03.344Z,101483.63
2023-01-04T02:18:42.847Z,101476.56
2023-01-04T02:21:23.340Z,101476.34
2023-01-04T02:24:25.932Z,101467.94
2023-01-04T02:27:40.547Z,101461.44
2023-01-04T02:30:18.423Z,101458.94
2023-01-04T02:33:05.959Z,101461.56
2023-01-04T02:35:54.773Z,101456.78
2023-01-04T02:39:07.504Z,101449.63
2023-01-04T02:41:48.009Z,101452.25
2023-01-04T02:44:58.668Z,101451.53
2023-01-04T02:47:56.280Z,101447.66
2023-01-04T02:50:36.072Z,101445.16
2023-01-04T02:53:13.432Z,101448.22
2023-01-04T02:56:06.907Z,101452.34
2023-01-04T02:59:23.091Z,101450.50
2023-01-04T03:02:46.764Z,101451.63
2023-01-04T03:05:58.339Z,101454.13
2023-01-04T03:08:38.289Z,101444.13
2023-01-04T03:11:33.298Z,101445.81
2023-01-04T03:14:31.741Z,101438.41
2023-01-04T03:17:14.357Z,101426.78
2023-01-04T03:19:51.485Z,101416.00
2023-01-04T03:23:05.776Z,101408.81
2023-01-04T03:25:59.065Z,101414.50
2023-01-04T03:28:56.579Z,101396.31
2023-01-04T03:32:00.144Z,101402.66
2023-01-04T03:34:47.343Z,101389.59
2023-01-04T03:37:40.907Z,101395.50
2023-01-04T03:40:48.232Z,101401.97
2023-01-04T03:43:50.203Z,101399.50
2023-01-04T03:46:55.104Z,101405.38
2023-01-04T03:49:28.555Z,101400.47
2023-01-04T03:52:01.391Z,101392.53
2023-01-04T03:54:41.906Z,101384.00
2023-01-04T03:57:11.316Z,101371.63
2023-01-04T03:59:49.563Z,101379.44
2023-01-04T04:02:22.519Z,101394.31
2023-01-04T04:05:08.639Z,101395.78
2023-01-04T04:07:54.500Z,101383.72
2023-01-04T04:10:21.531Z,101385.34
2023-01-04T04:12:48.966Z,101383.50
2023-01-04T04:15:16.460Z,101380.88
2023-01-04T04:17:43.539Z,101372.09
2023-01-04T04:20:11.693Z,101384.13
2023-01-04T04:22:39.131Z,101399.78
2023-01-04T04:25:06.872Z,101388.03
2023-01-04T04:27:33.939Z,101390.28
2023-01-04T04:30:02.642Z,101386.19
2023-01-04T04:32:29.717Z,101385.06
2023-01-04T04:34:56.756Z,101384.81
2023-01-04T04:37:25.277Z,101376.72
2023-01-04T04:39:52.250Z,101377.63
2023-01-04T04:42:19.265Z,101368.53
2023-01-04T04:44:46.260Z,101376.91
2023-01-04T04:47:14.477Z,101375.88
2023-01-04T04:49:41.810Z,101377.97
2023-01-04T04:52:09.022Z,101376.91
2023-01-04T04:54:36.242Z,101375.09
2023-01-04T04:57:03.550Z,101375.78
2023-01-04T04:59:30.669Z,101372.47
2023-01-04T05:01:57.812Z,101373.28
2023-01-04T05:04:25.155Z,101369.75
2023-01-04T05:06:53.082Z,101371.59
2023-01-04T05:09:20.277Z,101375.00
2023-01-04T05:12:06.249Z,101374.72
2023-01-04T05:14:33.422Z,101375.78
2023-01-04T05:17:00.612Z,101380.44
2023-01-04T05:19:27.670Z,101365.88
2023-01-04T05:21:54.768Z,101369.25
2023-01-04T05:24:21.816Z,101360.41
2023-01-04T05:26:48.826Z,101347.78
2023-01-04T05:29:34.807Z,101338.59
2023-01-04T05:32:01.955Z,101330.97
2023-01-04T05:34:29.076Z,101347.78
2023-01-04T05:36:56.154Z,101342.44
2023-01-04T05:39:23.230Z,101338.03
2023-01-04T05:42:08.898Z,101334.00
2023-01-04T05:44:36.071Z,101338.56
2023-01-04T05:47:03.117Z,101338.31
2023-01-04T05:49:30.162Z,101332.09
2023-01-04T05:51:58.205Z,101319.91
2023-01-04T05:54:25.221Z,101316.16
2023-01-04T05:56:52.244Z,101318.00
2023-01-04T05:59:19.301Z,101315.59
2023-01-04T06:01:46.422Z,101317.63
2023-01-04T06:04:13.750Z,101324.78
2023-01-04T06:06:40.802Z,101319.19
2023-01-04T06:09:07.799Z,101314.91
2023-01-04T06:11:34.938Z,101310.94
2023-01-04T06:14:02.132Z,101311.06
2023-01-04T06:16:29.237Z,101309.22
2023-01-04T06:18:56.543Z,101305.72
2023-01-04T06:21:25.494Z,101290.69
2023-01-04T06:23:53.706Z,101275.75
2023-01-04T06:26:21.516Z,101277.19
2023-01-04T06:28:48.575Z,101271.31
2023-01-04T06:31:15.727Z,101269.16
2023-01-04T06:33:42.773Z,101265.06
2023-01-04T06:36:19.331Z,101268.56
2023-01-04T06:38:49.099Z,101270.88
2023-01-04T06:41:16.716Z,101264.50
2023-01-04T06:43:43.722Z,101260.44
2023-01-04T06:46:11.081Z,101260.78
2023-01-04T06:48:38.272Z,101266.16
2023-01-04T06:51:05.620Z,101264.06
2023-01-04T06:53:32.632Z,101262.19
2023-01-04T06:55:59.704Z,101261.63
2023-01-04T06:58:26.980Z,101269.81
2023-01-04T07:00:55.524Z,101270.28
2023-01-04T07:03:23.128Z,101269.84
2023-01-04T07:05:50.226Z,101279.84
2023-01-04T07:08:17.288Z,101286.31
2023-01-04T07:10:44.697Z,101290.41
2023-01-04T07:13:12.184Z,101288.50
2023-01-04T07:15:40.841Z,101293.63
2023-01-04T07:18:10.391Z,101292.16
2023-01-04T07:20:38.993Z,101292.38
2023-01-04T07:23:07.598Z,101284.00
2023-01-04T07:25:34.771Z,101278.75
2023-01-04T07:28:02.638Z,101277.03
2023-01-04T07:30:29.943Z,101274.13
2023-01-04T07:32:57.742Z,101276.41
2023-01-04T07:35:25.199Z,101275.47
2023-01-04T07:37:57.914Z,101272.31
2023-01-04T07:40:26.959Z,101265.16
2023-01-04T07:42:59.154Z,101262.44
2023-01-04T07:45:26.625Z,101258.09
2023-01-04T07:47:55.186Z,101258.34
2023-01-04T07:50:22.284Z,101253.63
2023-01-04T07:52:49.362Z,101255.88
2023-01-04T07:55:16.450Z,101248.44
2023-01-04T07:57:43.470Z,101243.16
2023-01-04T08:00:11.645Z,101239.94
2023-01-04T08:02:38.933Z,101227.06
2023-01-04T08:05:06.592Z,101224.22
2023-01-04T08:07:33.696Z,101220.28
2023-01-04T08:10:03.551Z,101221.25
2023-01-04T08:12:30.592Z,101214.75
2023-01-04T08:14:57.681Z,101215.44
2023-01-04T08:17:24.722Z,101203.84
2023-01-04T08:19:51.721Z,101201.91
2023-01-04T08:22:18.711Z,101194.63
2023-01-04T08:24:45.788Z,101190.06
2023-01-04T08:27:12.804Z,101190.78
2023-01-04T08:29:39.873Z,101183.69
2023-01-04T08:32:07.018Z,101177.06
2023-01-04T08:34:34.141Z,101184.00
2023-01-04T08:37:01.378Z,101183.06
2023-01-04T08:39:29.707Z,101165.53
2023-01-04T08:42:02.592Z,101164.91
2023-01-04T08:44:35.226Z,101160.88
2023-01-04T08:47:02.768Z,101168.34
2023-01-04T08:49:30.437Z,101168.72
2023-01-04T08:51:57.465Z,101168.97
2023-01-04T08:54:24.468Z,101169.25
2023-01-04T08:56:51.584Z,101164.06
2023-01-04T08:59:21.583Z,101169.38
2023-01-04T09:01:48.714Z,101163.81
2023-01-04T09:04:15.835Z,101167.66
2023-01-04T09:06:42.919Z,101153.78
2023-01-04T09:09:10.067Z,101146.34
2023-01-04T09:11:38.639Z,101135.34
2023-01-04T09:14:09.263Z,101140.22
2023-01-04T09:16:38.456Z,101132.97
2023-01-04T09:19:06.973Z,101122.44
2023-01-04T09:21:34.184Z,101119.47
2023-01-04T09:24:01.278Z,101108.03
2023-01-04T09:26:28.337Z,101096.38
2023-01-04T09:28:56.919Z,101099.28
2023-01-04T09:31:27.104Z,101095.72
2023-01-04T09:36:43.349Z,101088.41
2023-01-04T09:39:16.818Z,101084.78
2023-01-04T09:42:00.167Z,101086.06
2023-01-04T09:45:22.017Z,101080.91
2023-01-04T09:47:57.031Z,101069.84
2023-01-04T09:50:52.845Z,101053.00
2023-01-04T09:53:32.112Z,101054.44
2023-01-04T09:56:36.349Z,101058.28
2023-01-04T09:59:12.006Z,101043.72
2023-01-04T10:02:04.696Z,101044.19
2023-01-04T10:04:49.461Z,101048.19
2023-01-04T10:07:31.260Z,101039.56
2023-01-04T10:10:00.189Z,101023.69
2023-01-04T10:12:59.495Z,101027.19
2023-01-04T10:15:52.847Z,101017.91
2023-01-04T10:19:28.688Z,101004.44
2023-01-04T10:22:22.400Z,100998.44
2023-01-04T10:25:23.263Z,100991.53
2023-01-04T10:28:12.021Z,100977.47
2023-01-04T10:31:39.546Z,100964.75
2023-01-04T10:34:19.582Z,100938.88
2023-01-04T10:36:48.669Z,100919.66
2023-01-04T10:39:30.254Z,100912.06
2023-01-04T10:42:33.441Z,100893.38
2023-01-04T10:45:33.539Z,100876.09
2023-01-04T10:48:33.735Z,100871.66
2023-01-04T10:51:10.522Z,100869.53
2023-01-04T10:54:01.210Z,100853.09
2023-01-04T10:56:49.449Z,100845.84
2023-01-04T10:59:36.935Z,100835.69
2023-01-04T11:02:43.795Z,100833.59
2023-01-04T11:05:29.330Z,100831.91
2023-01-04T11:08:08.200Z,100833.47
2023-01-04T11:10:45.165Z,100827.72
2023-01-04T11:13:12.469Z,100831.06
2023-01-04T11:15:42.669Z,100822.00
2023-01-04T11:18:11.774Z,100828.09
2023-01-04T11:20:38.821Z,100808.75
2023-01-04T11:23:20.255Z,100804.34
2023-01-04T11:26:15.952Z,100797.47
2023-01-04T11:29:01.970Z,100785.41
2023-01-04T11:32:14.222Z,100778.91
2023-01-04T11:34:52.652Z,100766.06
2023-01-04T11:37:38.834Z,100754.84
2023-01-04T11:40:16.356Z,100760.22
2023-01-04T11:43:20.861Z,100739.81
2023-01-04T11:46:01.834Z,100734.84
2023-01-04T11:48:44.466Z,100723.06
2023-01-04T11:51:29.830Z,100719.28
2023-01-04T11:54:14.312Z,100698.34
2023-01-04T11:57:04.600Z,100691.22
2023-01-04T11:59:35.997Z,100670.63
2023-01-04T12:02:35.166Z,100673.13
2023-01-04T12:05:32.685Z,100657.84
2023-01-04T12:08:00.013Z,100653.31
2023-01-04T12:10:28.606Z,100650.25
2023-01-04T12:12:58.858Z,100637.19
2023-01-04T12:15:44.358Z,100629.53
2023-01-04T12:18:38.270Z,100649.50
2023-01-04T12:21:05.909Z,100642.47
2023-01-04T12:23:34.274Z,100632.94
2023-01-04T12:26:02.729Z,100623.91
2023-01-04T12:28:39.808Z,100612.06
2023-01-04T12:31:22.521Z,100597.38
2023-01-04T12:33:51.527Z,100577.88
2023-01-04T12:36:37.854Z,100591.50
2023-01-04T12:39:13.322Z,100581.59
2023-01-04T12:41:40.231Z,100583.84
2023-01-04T12:44:43.210Z,100583.53
2023-01-04T12:47:37.661Z,100577.16
2023-01-04T12:50:23.297Z,100564.47
2023-01-04T12:55:44.879Z,100554.97
2023-01-04T13:01:30.019Z,100533.28
2023-01-04T13:04:27.777Z,100521.31
2023-01-04T13:07:00.378Z,100505.47
2023-01-04T13:09:27.430Z,100489.41
2023-01-04T13:12:45.228Z,100489.63
2023-01-04T13:15:35.878Z,100488.50
2023-01-04T13:18:17.326Z,100483.13
2023-01-04T13:20:44.478Z,100471.13
2023-01-04T13:23:13.606Z,100475.41
2023-01-04T13:25:40.715Z,100472.06
2023-01-04T13:28:17.439Z,100464.19
2023-01-04T13:30:45.876Z,100458.72
2023-01-04T13:33:26.781Z,100458.38
2023-01-04T13:36:10.438Z,100443.38
2023-01-04T13:38:40.692Z,100432.31
2023-01-04T13:41:21.901Z,100423.47
2023-01-04T13:44:02.960Z,100423.41
2023-01-04T13:46:30.142Z,100401.63
2023-01-04T13:49:02.598Z,100380.09
2023-01-04T13:51:37.793Z,100386.25
2023-01-04T13:54:17.993Z,100385.44
2023-01-04T13:56:48.349Z,100381.81
2023-01-04T13:59:21.191Z,100383.41
2023-01-04T14:01:49.293Z,100382.44
2023-01-04T14:04:26.454Z,100370.34
2023-01-04T14:06:58.510Z,100359.50
2023-01-04T14:09:35.412Z,100357.16
2023-01-04T14:12:16.964Z,100373.13
2023-01-04T14:15:15.648Z,100346.47
2023-01-04T14:17:52.590Z,100337.88
2023-01-04T14:20:19.495Z,100332.91
2023-01-04T14:22:46.385Z,100326.88
2023-01-04T14:25:32.909Z,100308.22
2023-01-04T14:28:28.610Z,100298.75
2023-01-04T14:31:03.572Z,100294.16
2023-01-04T14:33:36.875Z,100299.63
2023-01-04T14:36:07.120Z,100284.91
2023-01-04T14:39:11.091Z,100286.59
2023-01-04T14:41:59.600Z,100284.84
2023-01-04T14:44:31.578Z,100272.19
2023-01-04T14:47:04.054Z,100266.00
2023-01-04T14:49:31.581Z,100265.22
2023-01-04T14:52:02.002Z,100249.53
2023-01-04T14:54:31.574Z,100192.50
2023-01-04T14:56:59.315Z,100171.53
2023-01-04T14:59:27.067Z,100196.59
2023-01-04T15:01:56.738Z,100195.41
2023-01-04T15:04:24.692Z,100188.44
2023-01-04T15:06:57.190Z,100170.13
2023-01-04T15:09:25.482Z,100157.56
2023-01-04T15:11:52.552Z,100163.84
2023-01-04T15:14:19.854Z,100154.41
2023-01-04T15:16:47.334Z,100144.38
2023-01-04T15:19:15.404Z,100146.16
2023-01-04T15:21:42.519Z,100124.19
2023-01-04T15:24:10.411Z,100119.25
2023-01-04T15:26:39.652Z,100099.31
2023-01-04T15:29:08.654Z,100117.00
2023-01-04T15:31:39.797Z,100101.53
2023-01-04T15:34:10.178Z,100105.09
2023-01-04T15:36:41.035Z,100096.28
2023-01-04T15:39:11.981Z,100070.75
2023-01-04T15:41:57.650Z,100082.38
2023-01-04T15:44:24.908Z,100077.94
2023-01-04T15:46:53.690Z,100077.81
2023-01-04T15:49:20.832Z,100075.25
2023-01-04T15:51:47.863Z,100072.50
2023-01-04T15:54:14.910Z,100068.22
2023-01-04T15:56:41.988Z,100057.56
2023-01-04T15:59:09.107Z,100053.41
2023-01-04T16:01:36.309Z,100046.56
2023-01-04T16:04:06.834Z,100047.91
2023-01-04T16:06:33.900Z,100037.09
2023-01-04T16:09:01.995Z,100034.31
2023-01-04T16:11:29.803Z,100037.63
2023-01-04T16:13:57.132Z,100023.03
2023-01-04T16:16:27.889Z,100014.97
2023-01-04T16:18:57.281Z,100009.03
2023-01-04T16:21:27.850Z,100004.28
2023-01-04T16:24:05.198Z,100000.88
2023-01-04T16:26:34.164Z,99990.28
2023-01-04T16:29:02.858Z,99985.97
2023-01-04T16:31:37.984Z,99995.38
2023-01-04T16:34:06.445Z,99977.81
2023-01-04T16:36:33.470Z,99977.06
2023-01-04T16:39:02.393Z,99967.47
2023-01-04T16:41:30.071Z,99969.25
2023-01-04T16:44:01.009Z,99951.75
2023-01-04T16:46:37.527Z,99954.16
2023-01-04T16:49:10.899Z,99949.59
2023-01-04T16:51:41.629Z,99942.50
2023-01-04T16:54:12.375Z,99937.38
2023-01-04T16:56:41.019Z,99935.53
2023-01-04T16:59:09.139Z,99918.03
2023-01-04T17:01:43.662Z,99925.97
2023-01-04T17:04:15.224Z,99907.34
2023-01-04T17:06:44.933Z,99903.56
2023-01-04T17:09:19.569Z,99909.00
2023-01-04T17:14:44.209Z,99888.91
2023-01-04T17:17:11.440Z,99866.06
2023-01-04T17:19:38.482Z,99850.25
2023-01-04T17:22:05.585Z,99864.19
2023-01-04T17:24:32.670Z,99852.41
2023-01-04T17:26:59.695Z,99843.50
2023-01-04T17:29:26.790Z,99831.81
2023-01-04T17:31:53.875Z,99824.91
2023-01-04T17:34:23.319Z,99838.22
2023-01-04T17:36:50.576Z,99823.28
2023-01-04T17:39:19.377Z,99813.44
2023-01-04T17:41:46.425Z,99811.00
2023-01-04T17:44:13.428Z,99805.78
2023-01-04T17:46:40.685Z,99801.19
2023-01-04T17:49:22.082Z,99787.06
2023-01-04T17:51:51.128Z,99786.38
2023-01-04T17:54:18.151Z,99788.25
2023-01-04T17:56:45.273Z,99777.94
2023-01-04T17:59:12.709Z,99774.47
2023-01-04T18:01:39.823Z,99765.16
2023-01-04T18:04:06.926Z,99756.56
2023-01-04T18:06:36.105Z,99752.19
2023-01-04T18:09:06.495Z,99743.50
2023-01-04T18:11:35.361Z,99735.66
2023-01-04T18:14:06.210Z,99739.25
2023-01-04T18:16:56.917Z,99735.75
2023-01-04T18:19:30.495Z,99712.03
2023-01-04T18:21:58.758Z,99724.09
2023-01-04T18:24:41.995Z,99708.69
2023-01-04T18:27:22.058Z,99719.75
2023-01-04T18:29:50.647Z,99712.16
2023-01-04T18:32:17.925Z,99704.41
2023-01-04T18:34:45.071Z,99700.78
2023-01-04T18:37:12.309Z,99685.59
2023-01-04T18:39:39.367Z,99675.06
2023-01-04T18:42:06.378Z,99674.34
2023-01-04T18:44:34.753Z,99663.75
2023-01-04T18:47:03.741Z,99657.94
2023-01-04T18:49:31.349Z,99654.19
2023-01-04T18:51:58.351Z,99643.44
2023-01-04T18:54:25.395Z,99637.59
2023-01-04T18:56:58.665Z,99644.56
2023-01-04T18:59:29.256Z,99639.22
2023-01-04T19:02:01.911Z,99636.50
2023-01-04T19:04:35.158Z,99621.00
2023-01-04T19:07:02.514Z,99624.19
2023-01-04T19:09:30.642Z,99626.19
2023-01-04T19:11:57.781Z,99603.53
2023-01-04T19:14:24.891Z,99607.91
2023-01-04T19:16:53.347Z,99610.53
2023-01-04T19:19:20.689Z,99601.72
2023-01-04T19:21:47.860Z,99598.97
2023-01-04T19:24:14.894Z,99589.25
2023-01-04T19:26:42.574Z,99577.88
2023-01-04T19:29:09.687Z,99590.41
2023-01-04T19:31:39.102Z,99564.94
2023-01-04T19:34:09.981Z,99570.25
2023-01-04T19:36:37.239Z,99558.91
2023-01-04T19:39:09.325Z,99563.25
2023-01-04T19:41:38.221Z,99535.94
2023-01-04T19:44:08.941Z,99555.41
2023-01-04T19:46:39.224Z,99552.91
2023-01-04T19:49:14.181Z,99551.81
2023-01-04T19:51:44.574Z,99546.44
2023-01-04T19:54:14.402Z,99537.81
2023-01-04T19:56:41.883Z,99541.53
2023-01-04T19:59:09.414Z,99544.84
2023-01-04T20:01:36.715Z,99536.81
2023-01-04T20:04:04.320Z,99520.44
2023-01-04T20:06:32.492Z,99528.31
2023-01-04T20:08:59.530Z,99519.53
2023-01-04T20:11:26.615Z,99510.44
2023-01-04T20:13:53.675Z,99508.94
2023-01-04T20:16:20.703Z,99516.97
2023-01-04T20:18:47.803Z,99506.53
2023-01-04T20:21:15.176Z,99506.50
2023-01-04T20:23:42.697Z,99513.69
2023-01-04T20:26:16.026Z,99512.59
2023-01-04T20:28:46.310Z,99511.88
2023-01-04T20:31:16.454Z,99501.28
2023-01-04T20:33:43.885Z,99498.66
2023-01-04T20:36:20.967Z,99484.13
2023-01-04T20:38:49.248Z,99481.66
2023-01-04T20:41:23.294Z,99486.00
2023-01-04T20:43:51.395Z,99481.56
2023-01-04T20:46:33.036Z,99469.25
2023-01-04T20:49:01.866Z,99482.34
2023-01-04T20:51:30.592Z,99478.25
2023-01-04T20:54:02.025Z,99468.44
2023-01-04T20:56:31.583Z,99472.13
2023-01-04T20:58:58.745Z,99457.09
2023-01-04T21:01:25.899Z,99469.56
2023-01-04T21:03:53.177Z,99459.78
2023-01-04T21:06:21.581Z,99450.16
2023-01-04T21:08:50.443Z,99455.59
2023-01-04T21:11:18.934Z,99443.31
2023-01-04T21:13:46.237Z,99444.38
2023-01-04T21:16:15.084Z,99440.06
2023-01-04T21:18:43.478Z,99434.69
2023-01-04T21:21:16.253Z,99445.47
2023-01-04T21:23:44.488Z,99433.09
2023-01-04T21:26:18.641Z,99421.56
2023-01-04T21:28:46.786Z,99415.34
2023-01-04T21:31:19.025Z,99410.94
2023-01-04T21:33:46.806Z,99404.06
2023-01-04T21:36:23.974Z,99391.91
2023-01-04T21:38:53.199Z,99390.31
2023-01-04T21:41:24.876Z,99384.97
2023-01-04T21:43:55.760Z,99372.22
2023-01-04T21:46:23.806Z,99378.31
2023-01-04T21:48:55.843Z,99366.03
2023-01-04T21:51:23.741Z,99361.56
2023-01-04T21:53:51.093Z,99373.19
2023-01-04T21:56:21.533Z,99373.22
2023-01-04T21:58:49.457Z,99372.31
2023-01-04T22:01:34.218Z,99371.56
2023-01-04T22:04:01.755Z,99368.72
2023-01-04T22:06:29.281Z,99369.72
2023-01-04T22:08:56.365Z,99369.69
2023-01-04T22:11:23.455Z,99368.16
2023-01-04T22:13:50.794Z,99358.69
2023-01-04T22:16:18.485Z,99351.41
2023-01-04T22:18:49.962Z,99334.72
2023-01-04T22:21:21.257Z,99334.97
2023-01-04T22:23:48.391Z,99333.09
2023-01-04T22:26:15.913Z,99328.91
2023-01-04T22:28:42.954Z,99329.66
2023-01-04T22:31:13.304Z,99319.41
2023-01-04T22:33:41.017Z,99319.41
2023-01-04T22:36:19.156Z,99318.63
2023-01-04T22:38:50.569Z,99314.09
2023-01-04T22:41:21.326Z,99302.84
2023-01-04T22:43:53.761Z,99301.91
2023-01-04T22:46:20.814Z,99277.28
2023-01-04T22:48:47.852Z,99284.31
2023-01-04T22:51:18.194Z,99278.19
2023-01-04T22:53:46.035Z,99281.25
2023-01-04T22:56:20.027Z,99267.16
2023-01-04T22:58:53.442Z,99264.63
2023-01-04T23:01:33.147Z,99267.06
2023-01-04T23:04:02.996Z,99250.44
2023-01-04T23:06:32.023Z,99247.78
2023-01-04T23:09:03.669Z,99241.00
2023-01-04T23:11:33.456Z,99242.81
2023-01-04T23:14:03.784Z,99233.22
2023-01-04T23:16:33.076Z,99232.38
2023-01-04T23:19:02.455Z,99234.09
2023-01-04T23:21:30.359Z,99219.38
2023-01-04T23:23:57.726Z,99220.94
2023-01-04T23:26:26.802Z,99219.28
2023-01-04T23:28:54.991Z,99202.59
2023-01-04T23:31:24.651Z,99209.69
2023-01-04T23:33:56.061Z,99213.28
2023-01-04T23:36:30.332Z,99202.78
2023-01-04T23:39:00.343Z,99195.06
2023-01-04T23:41:47.193Z,99194.88
2023-01-04T23:44:19.716Z,99193.38
2023-01-04T23:46:57.421Z,99195.84
2023-01-04T23:49:26.900Z,99187.09
2023-01-04T23:51:54.343Z,99195.19
2023-01-04T23:54:21.850Z,99174.78
2023-01-04T23:56:49.448Z,99170.66
2023-01-04T23:59:16.737Z,99168.91
